sensor_id;sensor_type;location;lat;lon;timestamp;pressure;altitude;pressure_sealevel;temperature;humidity
22862;BME280;11598;50.652;6.172;2023-03-19T00:03:53;96031.75;;;7.24;96.58
22862;BME280;11598;50.652;6.172;2023-03-19T00:13:54;96036.94;;;7.11;96.81
22862;BME280;11598;50.652;6.172;2023-03-19T00:23:55;96034.97;;;7.02;97.30
22862;BME280;11598;50.652;6.172;2023-03-19T00:34:00;96032.78;;;6.95;97.67
22862;BME280;11598;50.652;6.172;2023-03-19T00:44:00;96018.25;;;6.94;98.37
22862;BME280;11598;50.652;6.172;2023-03-19T00:54:01;96027.03;;;6.92;98.80
22862;BME280;11598;50.652;6.172;2023-03-19T01:04:01;96038.38;;;6.89;99.19
22862;BME280;11598;50.652;6.172;2023-03-19T01:14:02;96036.31;;;6.94;99.97
22862;BME280;11598;50.652;6.172;2023-03-19T01:24:02;96034.16;;;7.14;100.00
22862;BME280;11598;50.652;6.172;2023-03-19T01:34:03;96034.53;;;7.33;100.00
22862;BME280;11598;50.652;6.172;2023-03-19T01:44:29;96033.59;;;7.47;100.00
22862;BME280;11598;50.652;6.172;2023-03-19T01:54:31;96026.88;;;7.57;99.98
22862;BME280;11598;50.652;6.172;2023-03-19T02:04:33;96028.94;;;7.65;99.74
22862;BME280;11598;50.652;6.172;2023-03-19T02:14:34;96029.53;;;7.69;99.37
22862;BME280;11598;50.652;6.172;2023-03-19T02:24:40;96025.84;;;7.60;99.10
22862;BME280;11598;50.652;6.172;2023-03-19T02:34:44;96021.53;;;7.35;99.05
22862;BME280;11598;50.652;6.172;2023-03-19T02:44:45;96023.09;;;7.12;99.67
22862;BME280;11598;50.652;6.172;2023-03-19T02:54:45;96039.09;;;6.91;100.00
22862;BME280;11598;50.652;6.172;2023-03-19T03:04:46;96039.47;;;6.72;100.00
22862;BME280;11598;50.652;6.172;2023-03-19T03:14:46;96043.22;;;6.68;100.00
22862;BME280;11598;50.652;6.172;2023-03-19T03:24:47;96035.78;;;6.76;100.00
22862;BME280;11598;50.652;6.172;2023-03-19T03:34:47;96034.66;;;6.93;100.00
22862;BME280;11598;50.652;6.172;2023-03-19T03:44:48;96021.03;;;7.04;100.00
22862;BME280;11598;50.652;6.172;2023-03-19T03:54:48;96040.22;;;7.00;100.00
22862;BME280;11598;50.652;6.172;2023-03-19T04:04:48;96041.38;;;7.09;100.00
22862;BME280;11598;50.652;6.172;2023-03-19T04:14:49;96045.31;;;7.14;100.00
22862;BME280;11598;50.652;6.172;2023-03-19T04:24:49;96059.75;;;7.17;100.00
22862;BME280;11598;50.652;6.172;2023-03-19T04:34:50;96073.00;;;7.25;100.00
22862;BME280;11598;50.652;6.172;2023-03-19T04:44:50;96070.53;;;7.36;100.00
22862;BME280;11598;50.652;6.172;2023-03-19T04:54:51;96069.19;;;7.44;100.00
22862;BME280;11598;50.652;6.172;2023-03-19T05:04:51;96082.53;;;7.50;100.00
22862;BME280;11598;50.652;6.172;2023-03-19T05:14:52;96087.25;;;7.56;100.00
22862;BME280;11598;50.652;6.172;2023-03-19T05:24:53;96094.91;;;7.58;100.00
22862;BME280;11598;50.652;6.172;2023-03-19T05:34:53;96105.78;;;7.63;100.00
22862;BME280;11598;50.652;6.172;2023-03-19T05:44:54;96096.88;;;7.67;100.00
22862;BME280;11598;50.652;6.172;2023-03-19T05:54:54;96104.94;;;7.62;100.00
22862;BME280;11598;50.652;6.172;2023-03-19T06:04:55;96112.50;;;7.53;100.00
22862;BME280;11598;50.652;6.172;2023-03-19T06:14:55;96113.75;;;7.34;100.00
22862;BME280;11598;50.652;6.172;2023-03-19T06:24:56;96121.91;;;7.41;100.00
22862;BME280;11598;50.652;6.172;2023-03-19T06:34:56;96133.88;;;7.55;100.00
22862;BME280;11598;50.652;6.172;2023-03-19T06:44:56;96131.72;;;7.74;100.00
22862;BME280;11598;50.652;6.172;2023-03-19T06:54:57;96141.50;;;7.95;100.00
22862;BME280;11598;50.652;6.172;2023-03-19T07:04:58;96152.13;;;8.16;100.00
22862;BME280;11598;50.652;6.172;2023-03-19T07:14:58;96156.16;;;8.33;100.00
22862;BME280;11598;50.652;6.172;2023-03-19T07:24:59;96158.28;;;8.39;100.00
22862;BME280;11598;50.652;6.172;2023-03-19T07:34:59;96162.53;;;8.53;100.00
22862;BME280;11598;50.652;6.172;2023-03-19T07:44:59;96167.63;;;8.78;100.00
22862;BME280;11598;50.652;6.172;2023-03-19T07:55:01;96169.56;;;8.87;100.00
22862;BME280;11598;50.652;6.172;2023-03-19T08:05:01;96181.41;;;8.79;100.00
22862;BME280;11598;50.652;6.172;2023-03-19T08:15:04;96192.41;;;9.18;100.00
22862;BME280;11598;50.652;6.172;2023-03-19T08:25:05;96192.88;;;9.58;100.00
22862;BME280;11598;50.652;6.172;2023-03-19T08:35:06;96197.19;;;9.82;99.14
22862;BME280;11598;50.652;6.172;2023-03-19T08:45:08;96209.56;;;9.89;97.77
22862;BME280;11598;50.652;6.172;2023-03-19T08:55:09;96207.53;;;9.70;97.35
22862;BME280;11598;50.652;6.172;2023-03-19T09:05:10;96218.34;;;9.53;97.12
22862;BME280;11598;50.652;6.172;2023-03-19T09:15:10;96230.00;;;9.23;97.45
22862;BME280;11598;50.652;6.172;2023-03-19T09:25:11;96246.06;;;9.04;99.27
22862;BME280;11598;50.652;6.172;2023-03-19T09:35:11;96238.41;;;9.27;100.00
22862;BME280;11598;50.652;6.172;2023-03-19T09:45:14;96241.38;;;9.80;100.00
22862;BME280;11598;50.652;6.172;2023-03-19T09:55:37;96242.91;;;10.29;100.00
22862;BME280;11598;50.652;6.172;2023-03-19T10:05:44;96253.25;;;10.74;100.00
22862;BME280;11598;50.652;6.172;2023-03-19T10:15:49;96263.78;;;10.84;100.00
22862;BME280;11598;50.652;6.172;2023-03-19T10:25:54;96252.41;;;10.96;100.00
22862;BME280;11598;50.652;6.172;2023-03-19T10:36:04;96261.19;;;10.84;98.00
22862;BME280;11598;50.652;6.172;2023-03-19T10:46:11;96256.59;;;10.54;97.80
22862;BME280;11598;50.652;6.172;2023-03-19T10:56:19;96253.31;;;10.52;96.41
22862;BME280;11598;50.652;6.172;2023-03-19T11:06:36;96256.72;;;10.52;95.87
22862;BME280;11598;50.652;6.172;2023-03-19T11:17:15;96260.03;;;10.66;92.94
22862;BME280;11598;50.652;6.172;2023-03-19T11:27:16;96259.66;;;10.59;92.86
22862;BME280;11598;50.652;6.172;2023-03-19T11:37:30;96266.41;;;11.16;92.13
22862;BME280;11598;50.652;6.172;2023-03-19T11:47:34;96267.34;;;11.80;87.55
22862;BME280;11598;50.652;6.172;2023-03-19T12:28:55;96265.72;;;11.14;85.77
22862;BME280;11598;50.652;6.172;2023-03-19T12:39:05;96274.56;;;11.23;87.43
22862;BME280;11598;50.652;6.172;2023-03-19T12:59:31;96266.50;;;11.58;85.97
22862;BME280;11598;50.652;6.172;2023-03-19T13:09:41;96277.22;;;11.44;85.62
22862;BME280;11598;50.652;6.172;2023-03-19T13:19:45;96275.41;;;11.56;85.51
22862;BME280;11598;50.652;6.172;2023-03-19T13:30:07;96272.41;;;11.60;85.06
22862;BME280;11598;50.652;6.172;2023-03-19T13:40:41;96275.03;;;11.60;84.57
22862;BME280;11598;50.652;6.172;2023-03-19T13:50:50;96270.72;;;11.71;84.29
22862;BME280;11598;50.652;6.172;2023-03-19T14:00:57;96264.31;;;11.75;82.94
22862;BME280;11598;50.652;6.172;2023-03-19T14:11:00;96273.63;;;11.89;81.50
22862;BME280;11598;50.652;6.172;2023-03-19T14:21:04;96278.72;;;11.90;81.45
22862;BME280;11598;50.652;6.172;2023-03-19T14:31:17;96285.19;;;11.96;81.99
22862;BME280;11598;50.652;6.172;2023-03-19T14:41:21;96288.56;;;11.75;81.69
22862;BME280;11598;50.652;6.172;2023-03-19T15:01:49;96302.72;;;11.18;82.52
22862;BME280;11598;50.652;6.172;2023-03-19T15:22:14;96306.75;;;10.88;84.13
22862;BME280;11598;50.652;6.172;2023-03-19T15:32:35;96312.22;;;10.51;85.03
22862;BME280;11598;50.652;6.172;2023-03-19T15:42:38;96332.44;;;10.24;86.33
22862;BME280;11598;50.652;6.172;2023-03-19T15:52:41;96341.97;;;10.12;86.35
22862;BME280;11598;50.652;6.172;2023-03-19T16:02:46;96356.47;;;10.03;86.84
22862;BME280;11598;50.652;6.172;2023-03-19T16:12:50;96358.81;;;9.95;87.47
22862;BME280;11598;50.652;6.172;2023-03-19T16:22:53;96362.56;;;9.91;88.93
22862;BME280;11598;50.652;6.172;2023-03-19T16:33:04;96365.22;;;9.78;90.43
22862;BME280;11598;50.652;6.172;2023-03-19T16:43:07;96367.09;;;9.52;91.87
22862;BME280;11598;50.652;6.172;2023-03-19T17:03:17;96409.97;;;8.95;95.86
22862;BME280;11598;50.652;6.172;2023-03-19T17:13:21;96428.00;;;8.84;97.39
22862;BME280;11598;50.652;6.172;2023-03-19T17:23:22;96453.91;;;8.71;98.29
22862;BME280;11598;50.652;6.172;2023-03-19T17:33:27;96464.88;;;8.62;99.17
22862;BME280;11598;50.652;6.172;2023-03-19T17:43:28;96476.13;;;8.48;99.08
22862;BME280;11598;50.652;6.172;2023-03-19T17:53:28;96492.19;;;8.40;99.51
22862;BME280;11598;50.652;6.172;2023-03-19T18:03:30;96495.03;;;8.36;99.31
22862;BME280;11598;50.652;6.172;2023-03-19T18:13:30;96509.09;;;8.32;99.77
22862;BME280;11598;50.652;6.172;2023-03-19T18:23:31;96519.75;;;8.27;100.00
22862;BME280;11598;50.652;6.172;2023-03-19T18:33:32;96523.38;;;8.24;99.95
22862;BME280;11598;50.652;6.172;2023-03-19T18:43:32;96535.56;;;8.22;99.93
22862;BME280;11598;50.652;6.172;2023-03-19T18:53:33;96542.81;;;8.17;100.00
22862;BME280;11598;50.652;6.172;2023-03-19T19:03:34;96553.44;;;8.13;100.00
22862;BME280;11598;50.652;6.172;2023-03-19T19:13:35;96563.78;;;8.13;100.00
22862;BME280;11598;50.652;6.172;2023-03-19T19:23:35;96586.06;;;8.15;100.00
22862;BME280;11598;50.652;6.172;2023-03-19T19:33:36;96596.94;;;8.20;100.00
22862;BME280;11598;50.652;6.172;2023-03-19T19:43:38;96603.69;;;8.23;100.00
22862;BME280;11598;50.652;6.172;2023-03-19T19:53:39;96619.97;;;8.25;100.00
22862;BME280;11598;50.652;6.172;2023-03-19T20:03:40;96634.41;;;8.15;100.00
22862;BME280;11598;50.652;6.172;2023-03-19T20:13:41;96649.84;;;7.88;100.00
22862;BME280;11598;50.652;6.172;2023-03-19T20:23:44;96655.47;;;7.66;100.00
22862;BME280;11598;50.652;6.172;2023-03-19T20:33:46;96669.00;;;7.40;100.00
22862;BME280;11598;50.652;6.172;2023-03-19T20:43:46;96672.00;;;7.18;100.00
22862;BME280;11598;50.652;6.172;2023-03-19T20:53:47;96703.16;;;7.01;100.00
22862;BME280;11598;50.652;6.172;2023-03-19T21:03:48;96697.69;;;6.75;100.00
22862;BME280;11598;50.652;6.172;2023-03-19T21:13:51;96705.44;;;6.60;100.00
22862;BME280;11598;50.652;6.172;2023-03-19T21:23:54;96712.69;;;6.53;100.00
22862;BME280;11598;50.652;6.172;2023-03-19T21:33:56;96711.09;;;6.50;100.00
22862;BME280;11598;50.652;6.172;2023-03-19T21:43:59;96697.53;;;6.47;100.00
22862;BME280;11598;50.652;6.172;2023-03-19T21:54:01;96701.19;;;6.43;100.00
22862;BME280;11598;50.652;6.172;2023-03-19T22:04:02;96707.44;;;6.39;100.00
22862;BME280;11598;50.652;6.172;2023-03-19T22:24:14;96731.06;;;6.31;100.00
22862;BME280;11598;50.652;6.172;2023-03-19T22:34:17;96731.97;;;6.30;100.00
22862;BME280;11598;50.652;6.172;2023-03-19T22:44:28;96731.38;;;6.25;100.00
22862;BME280;11598;50.652;6.172;2023-03-19T22:54:29;96736.03;;;6.18;100.00
22862;BME280;11598;50.652;6.172;2023-03-19T23:04:31;96734.69;;;6.11;100.00
22862;BME280;11598;50.652;6.172;2023-03-19T23:14:32;96735.38;;;5.97;100.00
22862;BME280;11598;50.652;6.172;2023-03-19T23:24:32;96747.22;;;5.84;100.00
22862;BME280;11598;50.652;6.172;2023-03-19T23:34:33;96740.19;;;5.70;100.00
22862;BME280;11598;50.652;6.172;2023-03-19T23:44:35;96761.28;;;5.61;100.00
22862;BME280;11598;50.652;6.172;2023-03-19T23:54:36;96765.00;;;5.55;100.00
